createdAt,value
2022-10-19T00:08:35.281Z,102840.0
2022-10-19T00:18:59.948Z,102840.0
2022-10-19T00:28:59.970Z,102820.0
2022-10-19T00:38:35.284Z,102830.0
2022-10-19T00:48:10.663Z,102840.0
2022-10-19T00:58:10.615Z,102830.0
2022-10-19T01:08:10.628Z,102840.0
2022-10-19T01:18:10.622Z,102830.0
2022-10-19T01:28:35.333Z,102820.0
2022-10-19T01:38:10.625Z,102810.0
2022-10-19T01:48:10.626Z,102810.0
2022-10-19T01:58:10.626Z,102800.0
2022-10-19T02:08:35.302Z,102800.0
2022-10-19T02:18:10.632Z,102800.0
2022-10-19T02:28:10.635Z,102790.0
2022-10-19T02:58:10.643Z,102750.0
2022-10-19T03:08:10.648Z,102760.0
2022-10-19T04:08:10.671Z,102750.0
2022-10-19T04:18:10.679Z,102750.0
2022-10-19T04:28:10.665Z,102750.0
2022-10-19T04:58:10.674Z,102750.0
2022-10-19T05:08:10.684Z,102750.0
2022-10-19T05:28:10.677Z,102740.0
2022-10-19T05:38:35.351Z,102740.0
2022-10-19T05:48:10.696Z,102740.0
2022-10-19T05:58:10.691Z,102730.0
2022-10-19T06:08:35.356Z,102730.0
2022-10-19T06:18:10.688Z,102720.0
2022-10-19T06:28:10.701Z,102740.0
2022-10-19T06:38:35.361Z,102730.0
2022-10-19T06:48:10.700Z,102730.0
2022-10-19T06:58:10.716Z,102720.0
2022-10-19T07:08:10.762Z,102730.0
2022-10-19T07:18:10.725Z,102730.0
2022-10-19T07:28:10.716Z,102740.0
2022-10-19T07:38:10.727Z,102730.0
2022-10-19T07:48:10.734Z,102720.0
2022-10-19T08:08:10.637Z,102730.0
2022-10-19T08:28:10.660Z,102700.0
2022-10-19T08:38:10.655Z,102690.0
2022-10-19T08:48:35.322Z,102690.0
2022-10-19T08:58:10.664Z,102680.0
2022-10-19T09:08:14.175Z,102650.0
2022-10-19T09:18:10.673Z,102660.0
2022-10-19T09:28:10.674Z,102650.0
2022-10-19T09:38:10.677Z,102650.0
2022-10-19T09:48:12.967Z,102630.0
2022-10-19T09:58:10.686Z,102620.0
2022-10-19T10:08:10.691Z,102640.0
2022-10-19T10:18:10.700Z,102620.0
2022-10-19T10:28:10.694Z,102610.0
2022-10-19T10:38:10.704Z,102600.0
2022-10-19T10:48:10.705Z,102580.0
2022-10-19T10:58:10.705Z,102580.0
2022-10-19T11:08:10.714Z,102580.0
2022-10-19T11:18:10.721Z,102550.0
2022-10-19T11:28:10.780Z,102540.0
2022-10-19T11:38:20.861Z,102520.0
2022-10-19T11:48:10.739Z,102510.0
2022-10-19T11:58:10.738Z,102490.0
2022-10-19T12:08:10.812Z,102480.0
2022-10-19T12:18:10.755Z,102450.0
2022-10-19T12:28:10.755Z,102440.0
2022-10-19T12:38:10.767Z,102410.0
2022-10-19T12:48:10.760Z,102400.0
2022-10-19T12:58:10.762Z,102380.0
2022-10-19T13:08:13.777Z,102360.0
2022-10-19T13:18:10.774Z,102340.0
2022-10-19T13:28:10.778Z,102330.0
2022-10-19T13:38:10.787Z,102320.0
2022-10-19T13:48:10.791Z,102310.0
2022-10-19T13:58:10.796Z,102300.0
2022-10-19T14:08:10.790Z,102290.0
2022-10-19T14:18:15.232Z,102280.0
2022-10-19T14:28:10.796Z,102280.0
2022-10-19T14:38:10.791Z,102270.0
2022-10-19T14:58:10.803Z,102250.0
2022-10-19T15:08:10.810Z,102240.0
2022-10-19T15:18:25.184Z,102240.0
2022-10-19T15:38:10.829Z,102220.0
2022-10-19T15:48:10.825Z,102220.0
2022-10-19T15:58:10.827Z,102190.0
2022-10-19T16:08:12.486Z,102180.0
2022-10-19T16:18:10.827Z,102170.0
2022-10-19T16:28:10.843Z,102150.0
2022-10-19T16:38:10.836Z,102140.0
2022-10-19T16:48:10.836Z,102130.0
2022-10-19T16:58:10.849Z,102130.0
2022-10-19T17:08:10.840Z,102120.0
2022-10-19T17:18:10.881Z,102100.0
2022-10-19T17:28:10.845Z,102100.0
2022-10-19T17:38:10.847Z,102100.0
2022-10-19T17:48:10.851Z,102100.0
2022-10-19T17:58:10.867Z,102090.0
2022-10-19T18:08:10.872Z,102100.0
2022-10-19T18:18:10.858Z,102100.0
2022-10-19T18:28:10.871Z,102100.0
2022-10-19T18:38:10.865Z,102090.0
2022-10-19T18:48:10.868Z,102080.0
2022-10-19T18:58:10.888Z,102060.0
2022-10-19T19:08:10.869Z,102050.0
2022-10-19T19:28:10.899Z,102020.0
2022-10-19T19:48:10.879Z,101990.0
2022-10-19T19:58:10.892Z,102000.0
2022-10-19T20:08:10.889Z,101970.0
2022-10-19T20:48:10.905Z,101910.0
2022-10-19T20:58:10.901Z,101920.0
2022-10-19T21:08:10.916Z,101910.0
2022-10-19T21:18:10.934Z,101890.0
2022-10-19T21:28:10.906Z,101880.0
2022-10-19T21:38:10.911Z,101880.0
2022-10-19T21:48:35.582Z,101890.0
2022-10-19T21:58:10.919Z,101870.0
2022-10-19T22:08:10.916Z,101860.0
2022-10-19T22:28:10.928Z,101820.0
2022-10-19T22:38:10.928Z,101790.0
2022-10-19T22:48:11.032Z,101800.0
2022-10-19T23:08:11.037Z,101770.0
2022-10-19T23:28:10.934Z,101760.0
2022-10-19T23:38:11.049Z,101740.0
2022-10-19T23:48:10.950Z,101720.0
2022-10-19T23:58:10.953Z,101730.0
